createdAt,value
2022-09-02T00:01:38.076Z,0.50
2022-09-02T00:05:41.523Z,0.50
2022-09-02T00:07:43.074Z,0.40
2022-09-02T00:09:44.570Z,0.40
2022-09-02T00:11:48.614Z,0.50
2022-09-02T00:13:50.717Z,1.00
2022-09-02T00:15:52.193Z,0.50
2022-09-02T00:17:54.172Z,0.50
2022-09-02T00:19:56.869Z,0.50
2022-09-02T00:21:59.551Z,0.50
2022-09-02T00:24:03.213Z,0.55
2022-09-02T00:26:05.225Z,0.70
2022-09-02T00:28:07.500Z,0.40
2022-09-02T00:30:09.654Z,0.50
2022-09-02T00:32:11.193Z,0.43
2022-09-02T00:34:13.672Z,0.70
2022-09-02T00:36:15.193Z,0.60
2022-09-02T00:38:17.268Z,0.50
2022-09-02T00:40:18.903Z,0.47
2022-09-02T00:42:22.508Z,0.50
2022-09-02T00:44:24.528Z,0.40
2022-09-02T00:46:28.099Z,0.60
2022-09-02T00:48:33.073Z,0.60
2022-09-02T00:50:37.039Z,0.70
2022-09-02T00:52:44.429Z,0.50
2022-09-02T00:54:52.620Z,0.45
2022-09-02T00:56:55.865Z,0.50
2022-09-02T00:58:58.854Z,0.40
2022-09-02T01:01:00.691Z,0.43
2022-09-02T01:03:10.095Z,0.50
2022-09-02T01:05:14.803Z,0.40
2022-09-02T01:07:16.418Z,0.55
2022-09-02T01:09:18.401Z,0.50
2022-09-02T01:11:21.340Z,0.52
2022-09-02T01:13:28.445Z,0.55
2022-09-02T01:15:31.178Z,0.50
2022-09-02T01:17:34.743Z,0.50
2022-09-02T01:19:40.366Z,0.50
2022-09-02T01:21:47.213Z,0.60
2022-09-02T01:23:50.282Z,0.35
2022-09-02T01:25:52.826Z,0.57
2022-09-02T01:27:59.731Z,0.50
2022-09-02T01:30:01.329Z,1.00
2022-09-02T01:32:03.152Z,1.05
2022-09-02T01:34:06.545Z,0.65
2022-09-02T01:36:08.761Z,0.45
2022-09-02T01:38:10.544Z,0.38
2022-09-02T01:40:14.819Z,0.60
2022-09-02T01:42:19.154Z,0.70
2022-09-02T01:44:20.811Z,0.60
2022-09-02T01:46:23.611Z,0.60
2022-09-02T01:48:25.841Z,0.47
2022-09-02T01:50:27.471Z,0.50
2022-09-02T01:52:29.386Z,0.70
2022-09-02T01:54:31.032Z,0.50
2022-09-02T01:56:32.553Z,0.60
2022-09-02T01:58:34.104Z,0.65
2022-09-02T02:00:36.005Z,0.73
2022-09-02T02:02:37.796Z,0.60
2022-09-02T02:04:39.678Z,0.60
2022-09-02T02:06:42.877Z,1.17
2022-09-02T02:08:45.270Z,0.70
2022-09-02T02:10:47.253Z,0.60
2022-09-02T02:12:49.143Z,0.63
2022-09-02T02:14:50.781Z,0.50
2022-09-02T02:16:52.502Z,0.73
2022-09-02T02:18:54.093Z,0.43
2022-09-02T02:20:55.862Z,0.43
2022-09-02T02:22:57.439Z,0.55
2022-09-02T02:24:58.983Z,0.52
2022-09-02T02:27:00.481Z,0.63
2022-09-02T02:29:02.168Z,0.80
2022-09-02T02:31:03.969Z,0.70
2022-09-02T02:33:05.529Z,0.50
2022-09-02T02:35:07.831Z,0.50
2022-09-02T02:37:12.234Z,0.68
2022-09-02T02:39:13.778Z,0.70
2022-09-02T02:41:15.932Z,0.50
2022-09-02T02:43:17.407Z,0.60
2022-09-02T02:45:19.418Z,0.60
2022-09-02T02:47:21.190Z,0.47
2022-09-02T02:49:23.246Z,0.50
2022-09-02T02:51:25.014Z,0.85
2022-09-02T02:53:29.564Z,0.60
2022-09-02T02:55:31.281Z,0.68
2022-09-02T02:57:34.656Z,0.70
2022-09-02T02:59:36.992Z,0.50
2022-09-02T03:01:38.958Z,0.60
2022-09-02T03:03:42.619Z,0.60
2022-09-02T03:05:47.496Z,0.63
2022-09-02T03:07:49.048Z,0.65
2022-09-02T03:09:50.548Z,0.50
2022-09-02T03:11:52.085Z,0.60
2022-09-02T03:13:53.955Z,0.40
2022-09-02T03:15:55.562Z,0.60
2022-09-02T03:17:57.868Z,0.60
2022-09-02T03:19:59.740Z,0.45
2022-09-02T03:22:01.278Z,0.60
2022-09-02T03:24:03.025Z,0.60
2022-09-02T03:26:11.122Z,0.60
2022-09-02T03:28:12.981Z,0.63
2022-09-02T03:30:21.820Z,0.60
2022-09-02T03:32:23.391Z,0.50
2022-09-02T03:34:27.821Z,0.65
2022-09-02T03:36:34.643Z,0.80
2022-09-02T03:38:36.356Z,0.63
2022-09-02T03:40:38.722Z,0.60
2022-09-02T03:42:40.528Z,1.00
2022-09-02T03:44:44.577Z,0.43
2022-09-02T03:46:46.895Z,0.63
2022-09-02T03:48:51.774Z,0.70
2022-09-02T03:50:53.297Z,0.50
2022-09-02T03:52:55.153Z,0.70
2022-09-02T03:54:56.620Z,0.85
2022-09-02T03:56:58.300Z,0.70
2022-09-02T03:59:00.524Z,0.70
2022-09-02T04:01:02.602Z,0.70
2022-09-02T04:03:04.428Z,0.60
2022-09-02T04:05:07.001Z,0.60
2022-09-02T04:07:17.333Z,0.80
2022-09-02T04:09:18.876Z,0.70
2022-09-02T04:11:23.054Z,0.60
2022-09-02T04:13:24.645Z,1.15
2022-09-02T04:15:26.336Z,1.55
2022-09-02T04:17:27.933Z,2.38
2022-09-02T04:19:29.590Z,2.28
2022-09-02T04:21:34.219Z,2.38
2022-09-02T04:23:36.276Z,1.50
2022-09-02T04:25:42.922Z,1.20
2022-09-02T04:27:44.530Z,1.02
2022-09-02T04:29:45.995Z,1.00
2022-09-02T04:31:47.527Z,1.10
2022-09-02T04:33:49.104Z,1.00
2022-09-02T04:35:52.222Z,0.98
2022-09-02T04:37:53.826Z,0.80
2022-09-02T04:39:55.430Z,0.80
2022-09-02T04:41:56.946Z,1.00
2022-09-02T04:43:59.839Z,1.00
2022-09-02T04:46:03.788Z,0.85
2022-09-02T04:48:05.301Z,0.75
2022-09-02T04:50:07.685Z,0.95
2022-09-02T04:52:10.540Z,0.90
2022-09-02T04:54:12.135Z,0.80
2022-09-02T04:56:17.028Z,1.08
2022-09-02T04:58:18.530Z,1.00
2022-09-02T05:00:20.136Z,1.15
2022-09-02T05:02:22.953Z,0.90
2022-09-02T05:04:24.505Z,1.00
2022-09-02T05:06:28.104Z,0.95
2022-09-02T05:08:29.783Z,0.90
2022-09-02T05:10:32.872Z,0.93
2022-09-02T05:12:35.261Z,1.40
2022-09-02T05:14:36.775Z,1.45
2022-09-02T05:16:40.756Z,1.08
2022-09-02T05:18:42.480Z,1.20
2022-09-02T05:20:44.005Z,1.00
2022-09-02T05:22:46.283Z,1.10
2022-09-02T05:24:47.759Z,1.40
2022-09-02T05:26:50.988Z,1.10
2022-09-02T05:28:52.523Z,1.00
2022-09-02T05:30:54.072Z,1.27
2022-09-02T05:32:55.842Z,1.10
2022-09-02T05:34:58.286Z,1.30
2022-09-02T05:36:59.787Z,1.30
2022-09-02T05:39:01.467Z,1.30
2022-09-02T05:41:08.055Z,1.20
2022-09-02T05:43:09.545Z,1.05
2022-09-02T05:45:11.231Z,1.30
2022-09-02T05:47:15.601Z,1.10
2022-09-02T05:49:22.043Z,1.27
2022-09-02T05:51:24.271Z,1.20
2022-09-02T05:53:27.032Z,1.30
2022-09-02T05:55:28.624Z,1.10
2022-09-02T05:57:30.147Z,1.30
2022-09-02T05:59:35.183Z,1.20
2022-09-02T06:01:37.580Z,1.30
2022-09-02T06:03:39.248Z,1.05
2022-09-02T06:05:42.526Z,1.40
2022-09-02T06:07:44.111Z,1.45
2022-09-02T06:09:45.813Z,1.13
2022-09-02T06:11:49.556Z,1.17
2022-09-02T06:13:52.746Z,1.33
2022-09-02T06:15:54.511Z,1.52
2022-09-02T06:17:59.494Z,1.67
2022-09-02T06:20:01.062Z,1.55
2022-09-02T06:22:03.648Z,1.50
2022-09-02T06:24:07.151Z,1.60
2022-09-02T06:26:10.683Z,1.80
2022-09-02T06:28:13.856Z,2.25
2022-09-02T06:30:15.376Z,2.28
2022-09-02T06:32:16.872Z,2.78
2022-09-02T06:34:21.649Z,3.00
2022-09-02T06:36:28.274Z,3.00
2022-09-02T06:38:30.139Z,3.30
2022-09-02T06:40:32.172Z,3.17
2022-09-02T06:42:33.841Z,3.47
2022-09-02T06:44:35.396Z,3.10
2022-09-02T06:46:40.092Z,3.28
2022-09-02T06:48:41.644Z,3.22
2022-09-02T06:50:46.498Z,4.30
2022-09-02T06:52:48.030Z,5.22
2022-09-02T06:54:51.089Z,4.53
2022-09-02T06:56:53.131Z,4.80
2022-09-02T06:58:55.776Z,5.05
2022-09-02T07:00:57.292Z,4.57
2022-09-02T07:03:28.401Z,5.28
2022-09-02T07:05:29.886Z,5.18
2022-09-02T07:07:31.405Z,4.78
2022-09-02T07:09:33.243Z,4.90
2022-09-02T07:11:35.881Z,5.00
2022-09-02T07:13:37.393Z,5.20
2022-09-02T07:15:41.248Z,5.13
2022-09-02T07:17:42.801Z,5.18
2022-09-02T07:19:45.045Z,5.75
2022-09-02T07:21:47.824Z,5.40
2022-09-02T07:23:49.426Z,5.30
2022-09-02T07:25:51.063Z,6.30
2022-09-02T07:27:53.052Z,6.05
2022-09-02T07:29:54.652Z,5.10
2022-09-02T07:31:56.223Z,5.50
2022-09-02T07:33:59.090Z,4.88
2022-09-02T07:36:00.615Z,5.45
2022-09-02T07:38:04.341Z,5.05
2022-09-02T07:40:07.833Z,4.90
2022-09-02T07:42:09.619Z,5.00
2022-09-02T07:44:11.718Z,5.18
2022-09-02T07:46:13.433Z,5.25
2022-09-02T07:48:15.893Z,4.97
2022-09-02T07:50:20.835Z,4.97
2022-09-02T07:52:22.980Z,5.75
2022-09-02T07:54:26.960Z,5.57
2022-09-02T07:56:29.158Z,6.00
2022-09-02T07:58:32.320Z,5.50
2022-09-02T08:00:34.417Z,5.53
2022-09-02T08:02:36.004Z,4.95
2022-09-02T08:04:37.545Z,5.25
2022-09-02T08:06:41.328Z,6.22
2022-09-02T08:08:43.582Z,6.15
2022-09-02T08:10:46.841Z,6.05
2022-09-02T08:12:48.462Z,5.90
2022-09-02T08:14:50.878Z,5.85
2022-09-02T08:16:53.927Z,5.78
2022-09-02T08:18:56.263Z,5.22
2022-09-02T08:20:57.849Z,5.30
2022-09-02T08:23:11.589Z,5.28
2022-09-02T08:25:14.390Z,5.20
2022-09-02T08:27:15.917Z,5.97
2022-09-02T08:29:17.650Z,6.15
2022-09-02T08:31:19.183Z,4.40
2022-09-02T08:33:20.998Z,3.75
2022-09-02T08:35:22.557Z,4.55
2022-09-02T08:37:24.038Z,2.78
2022-09-02T08:39:25.897Z,3.38
2022-09-02T08:41:43.852Z,2.45
2022-09-02T08:43:46.534Z,2.42
2022-09-02T08:45:48.749Z,2.47
2022-09-02T08:48:09.526Z,2.92
2022-09-02T08:50:15.890Z,3.60
2022-09-02T08:52:32.543Z,3.40
2022-09-02T08:54:55.539Z,2.60
2022-09-02T08:56:58.105Z,3.35
2022-09-02T08:59:03.053Z,3.35
2022-09-02T09:01:15.120Z,4.45
2022-09-02T09:03:25.172Z,4.25
2022-09-02T09:06:02.186Z,3.00
2022-09-02T09:08:31.230Z,2.20
2022-09-02T09:11:10.612Z,2.28
2022-09-02T09:13:30.149Z,2.45
2022-09-02T09:16:16.025Z,2.25
2022-09-02T09:18:21.060Z,1.70
2022-09-02T09:20:29.226Z,1.65
2022-09-02T09:22:37.431Z,2.00
2022-09-02T09:24:41.556Z,1.33
2022-09-02T09:26:44.246Z,1.90
2022-09-02T09:28:48.533Z,2.95
2022-09-02T09:30:50.551Z,3.50
2022-09-02T09:33:16.517Z,2.25
2022-09-02T09:35:19.588Z,1.38
2022-09-02T09:37:40.070Z,1.25
2022-09-02T09:39:41.558Z,1.13
2022-09-02T09:41:44.088Z,1.20
2022-09-02T09:43:45.897Z,1.55
2022-09-02T09:45:49.970Z,2.53
2022-09-02T09:48:16.246Z,2.47
2022-09-02T09:50:19.075Z,2.20
2022-09-02T09:52:29.205Z,2.90
2022-09-02T09:54:30.929Z,3.08
2022-09-02T09:56:37.685Z,3.08
2022-09-02T09:58:39.204Z,3.42
2022-09-02T10:00:41.361Z,3.30
2022-09-02T10:02:51.603Z,2.60
2022-09-02T10:05:10.237Z,1.70
2022-09-02T10:07:13.510Z,2.10
2022-09-02T10:09:15.198Z,2.22
2022-09-02T10:11:23.120Z,2.22
2022-09-02T10:13:35.658Z,1.92
2022-09-02T10:16:02.478Z,1.90
2022-09-02T10:18:22.251Z,2.10
2022-09-02T10:20:29.636Z,1.92
2022-09-02T10:22:59.905Z,2.40
2022-09-02T10:25:41.019Z,1.95
2022-09-02T10:27:51.324Z,1.70
2022-09-02T10:30:01.870Z,1.60
2022-09-02T10:32:12.613Z,1.73
2022-09-02T10:34:36.130Z,1.50
2022-09-02T10:37:16.955Z,1.13
2022-09-02T10:39:59.748Z,0.90
2022-09-02T10:42:16.767Z,1.05
2022-09-02T10:44:31.335Z,1.55
2022-09-02T10:47:01.538Z,1.02
2022-09-02T10:49:38.358Z,1.30
2022-09-02T10:52:01.226Z,1.27
2022-09-02T10:54:23.461Z,1.17
2022-09-02T10:56:43.523Z,1.02
2022-09-02T10:58:50.721Z,0.80
2022-09-02T11:00:56.681Z,1.00
2022-09-02T11:02:58.225Z,0.98
2022-09-02T11:05:05.588Z,0.90
2022-09-02T11:07:10.873Z,0.70
2022-09-02T11:09:22.703Z,1.02
2022-09-02T11:11:24.344Z,0.85
2022-09-02T11:14:03.515Z,0.70
2022-09-02T11:16:16.863Z,0.63
2022-09-02T11:18:43.697Z,0.50
2022-09-02T11:20:56.496Z,0.70
2022-09-02T11:23:38.533Z,0.50
2022-09-02T11:25:46.906Z,1.50
2022-09-02T11:29:55.866Z,0.90
2022-09-02T11:32:14.897Z,0.40
2022-09-02T11:34:34.991Z,0.60
2022-09-02T11:36:39.655Z,0.60
2022-09-02T11:38:48.985Z,0.77
2022-09-02T11:41:36.417Z,0.52
2022-09-02T11:45:57.105Z,0.52
2022-09-02T11:48:44.996Z,0.90
2022-09-02T11:53:25.339Z,0.50
2022-09-02T11:55:39.121Z,0.70
2022-09-02T11:57:41.494Z,0.65
2022-09-02T11:59:51.895Z,0.50
2022-09-02T12:01:55.016Z,0.47
2022-09-02T12:06:33.590Z,0.43
2022-09-02T12:08:36.702Z,0.60
2022-09-02T12:10:45.258Z,0.50
2022-09-02T12:12:59.003Z,0.50
2022-09-02T12:15:03.615Z,0.60
2022-09-02T12:17:08.433Z,0.65
2022-09-02T12:19:10.826Z,0.55
2022-09-02T12:21:15.841Z,0.43
2022-09-02T12:23:48.942Z,0.80
2022-09-02T12:25:57.055Z,1.13
2022-09-02T12:28:18.914Z,0.90
2022-09-02T12:31:00.991Z,0.85
2022-09-02T12:33:13.415Z,0.50
2022-09-02T12:35:37.125Z,0.60
2022-09-02T12:37:54.566Z,0.95
2022-09-02T12:40:03.108Z,0.40
2022-09-02T12:42:04.629Z,0.40
2022-09-02T12:44:19.671Z,0.50
2022-09-02T12:46:21.157Z,0.40
2022-09-02T12:48:38.268Z,0.40
2022-09-02T12:50:58.020Z,0.40
2022-09-02T12:53:21.139Z,0.50
2022-09-02T12:55:27.785Z,1.00
2022-09-02T12:57:39.920Z,1.40
2022-09-02T12:59:41.923Z,1.50
2022-09-02T13:01:54.275Z,1.23
2022-09-02T13:04:02.457Z,0.70
2022-09-02T13:06:31.413Z,0.57
2022-09-02T13:09:07.003Z,0.80
2022-09-02T13:11:29.719Z,0.50
2022-09-02T13:14:01.647Z,0.68
2022-09-02T13:16:15.558Z,0.50
2022-09-02T13:18:32.367Z,0.50
2022-09-02T13:20:55.999Z,0.90
2022-09-02T13:23:15.726Z,0.80
2022-09-02T13:25:29.337Z,0.63
2022-09-02T13:27:30.789Z,0.57
2022-09-02T13:30:10.637Z,0.80
2022-09-02T13:32:23.834Z,1.20
2022-09-02T13:34:25.484Z,0.85
2022-09-02T13:36:32.843Z,1.00
2022-09-02T13:38:34.598Z,0.90
2022-09-02T13:40:38.244Z,0.80
2022-09-02T13:43:09.629Z,0.68
2022-09-02T13:45:17.052Z,0.52
2022-09-02T13:47:22.368Z,0.75
2022-09-02T13:49:35.678Z,0.60
2022-09-02T13:51:42.483Z,0.52
2022-09-02T13:56:13.061Z,0.57
2022-09-02T13:58:25.287Z,0.95
2022-09-02T14:00:47.229Z,0.50
2022-09-02T14:02:58.395Z,0.50
2022-09-02T14:05:06.327Z,0.63
2022-09-02T14:07:09.460Z,0.80
2022-09-02T14:09:24.030Z,0.40
2022-09-02T14:11:27.728Z,0.60
2022-09-02T14:13:40.031Z,0.57
2022-09-02T14:15:41.955Z,0.50
2022-09-02T14:17:43.802Z,0.52
2022-09-02T14:19:45.375Z,0.60
2022-09-02T14:21:49.831Z,0.52
2022-09-02T14:23:52.576Z,1.00
2022-09-02T14:25:58.236Z,0.50
2022-09-02T14:28:03.225Z,0.52
2022-09-02T14:30:09.195Z,0.57
2022-09-02T14:32:26.075Z,0.68
2022-09-02T14:34:35.789Z,0.68
2022-09-02T14:36:38.624Z,0.57
2022-09-02T14:38:49.073Z,0.82
2022-09-02T14:41:00.132Z,0.63
2022-09-02T14:43:02.183Z,0.70
2022-09-02T14:45:05.674Z,0.60
2022-09-02T14:47:15.122Z,0.65
2022-09-02T14:49:22.613Z,1.50
2022-09-02T14:51:32.600Z,0.75
2022-09-02T14:53:37.488Z,0.50
2022-09-02T14:55:56.007Z,0.50
2022-09-02T14:58:02.443Z,0.52
2022-09-02T15:00:11.236Z,0.70
2022-09-02T15:02:32.215Z,0.80
2022-09-02T15:04:35.658Z,0.98
2022-09-02T15:06:37.161Z,0.60
2022-09-02T15:08:38.802Z,0.73
2022-09-02T15:10:41.320Z,0.55
2022-09-02T15:12:50.931Z,0.60
2022-09-02T15:14:52.978Z,0.80
2022-09-02T15:16:55.184Z,0.70
2022-09-02T15:18:56.683Z,0.70
2022-09-02T15:20:58.364Z,0.70
2022-09-02T15:22:59.896Z,0.60
2022-09-02T15:25:01.935Z,0.80
2022-09-02T15:27:03.990Z,0.60
2022-09-02T15:29:05.578Z,0.82
2022-09-02T15:31:07.375Z,0.90
2022-09-02T15:33:16.573Z,1.20
2022-09-02T15:35:19.527Z,1.15
2022-09-02T15:37:21.098Z,1.25
2022-09-02T15:39:23.048Z,0.90
2022-09-02T15:41:27.224Z,0.82
2022-09-02T15:43:29.273Z,0.70
2022-09-02T15:45:31.169Z,0.52
2022-09-02T15:47:35.155Z,0.80
2022-09-02T15:49:36.628Z,0.50
2022-09-02T15:51:39.193Z,0.93
2022-09-02T15:53:41.075Z,1.00
2022-09-02T15:55:42.568Z,0.60
2022-09-02T15:57:44.098Z,0.88
2022-09-02T15:59:45.573Z,0.90
2022-09-02T16:01:49.558Z,1.02
2022-09-02T16:03:51.139Z,0.85
2022-09-02T16:05:52.652Z,0.63
2022-09-02T16:07:54.908Z,0.75
2022-09-02T16:09:59.981Z,0.63
2022-09-02T16:12:06.148Z,0.85
2022-09-02T16:14:07.973Z,0.90
2022-09-02T16:16:11.760Z,0.90
2022-09-02T16:18:13.713Z,0.82
2022-09-02T16:20:19.170Z,0.70
2022-09-02T16:22:22.570Z,0.90
2022-09-02T16:24:24.346Z,0.82
2022-09-02T16:26:30.857Z,1.33
2022-09-02T16:28:37.810Z,0.90
2022-09-02T16:30:42.234Z,0.90
2022-09-02T16:32:47.718Z,1.63
2022-09-02T16:34:49.203Z,1.30
2022-09-02T16:36:51.533Z,0.90
2022-09-02T16:38:53.089Z,0.70
2022-09-02T16:40:57.087Z,0.90
2022-09-02T16:42:58.593Z,1.45
2022-09-02T16:45:00.106Z,0.80
2022-09-02T16:47:01.600Z,0.80
2022-09-02T16:49:03.920Z,0.90
2022-09-02T16:51:05.821Z,0.70
2022-09-02T16:53:07.351Z,0.60
2022-09-02T16:55:09.052Z,0.93
2022-09-02T16:57:10.917Z,0.60
2022-09-02T16:59:12.882Z,0.77
2022-09-02T17:01:14.603Z,0.80
2022-09-02T17:03:16.200Z,0.70
2022-09-02T17:05:17.703Z,0.93
2022-09-02T17:07:19.175Z,0.82
2022-09-02T17:09:20.913Z,0.60
2022-09-02T17:11:33.711Z,0.65
2022-09-02T17:13:35.244Z,0.68
2022-09-02T17:15:36.737Z,0.63
2022-09-02T17:17:40.074Z,0.52
2022-09-02T17:19:41.637Z,0.50
2022-09-02T17:21:55.335Z,0.60
2022-09-02T17:23:57.870Z,0.70
2022-09-02T17:26:00.202Z,0.70
2022-09-02T17:28:01.817Z,0.80
2022-09-02T17:30:08.092Z,0.70
2022-09-02T17:32:09.612Z,0.63
2022-09-02T17:34:11.607Z,0.63
2022-09-02T17:36:13.591Z,0.70
2022-09-02T17:38:15.074Z,0.75
2022-09-02T17:40:42.676Z,1.20
2022-09-02T17:42:44.230Z,0.90
2022-09-02T17:44:45.794Z,0.50
2022-09-02T17:46:47.335Z,0.70
2022-09-02T17:49:15.181Z,0.68
2022-09-02T17:51:10.812Z,0.80
2022-09-02T17:53:12.347Z,0.88
2022-09-02T17:55:13.881Z,0.70
2022-09-02T17:57:42.451Z,0.70
2022-09-02T17:59:47.193Z,0.80
2022-09-02T18:02:02.633Z,0.80
2022-09-02T18:04:28.917Z,0.95
2022-09-02T18:06:35.227Z,0.57
2022-09-02T18:08:51.764Z,0.40
2022-09-02T18:10:58.117Z,0.68
2022-09-02T18:13:06.318Z,0.50
2022-09-02T18:15:08.785Z,0.65
2022-09-02T18:17:35.050Z,0.80
2022-09-02T18:19:49.571Z,0.47
2022-09-02T18:22:20.538Z,0.70
2022-09-02T18:24:25.422Z,0.65
2022-09-02T18:26:45.789Z,0.60
2022-09-02T18:29:06.042Z,0.60
2022-09-02T18:31:17.318Z,0.80
2022-09-02T18:33:39.926Z,0.60
2022-09-02T18:36:00.589Z,0.70
2022-09-02T18:38:17.299Z,0.68
2022-09-02T18:40:28.308Z,0.73
2022-09-02T18:42:50.446Z,0.90
2022-09-02T18:45:10.647Z,0.77
2022-09-02T18:47:21.180Z,0.70
2022-09-02T18:49:25.626Z,0.60
2022-09-02T18:51:41.563Z,0.30
2022-09-02T18:53:48.333Z,0.52
2022-09-02T18:55:51.927Z,0.60
2022-09-02T18:58:00.079Z,0.40
2022-09-02T19:00:09.484Z,0.60
2022-09-02T19:02:17.631Z,0.50
2022-09-02T19:04:19.203Z,0.80
2022-09-02T19:06:28.815Z,0.70
2022-09-02T19:08:33.959Z,0.60
2022-09-02T19:10:35.548Z,0.77
2022-09-02T19:12:39.168Z,0.77
2022-09-02T19:14:41.061Z,0.80
2022-09-02T19:16:42.679Z,0.70
2022-09-02T19:18:44.721Z,0.60
2022-09-02T19:20:46.425Z,0.70
2022-09-02T19:22:52.699Z,0.70
2022-09-02T19:25:01.296Z,0.73
2022-09-02T19:29:10.668Z,0.75
2022-09-02T19:31:20.252Z,0.65
2022-09-02T19:33:21.853Z,0.70
2022-09-02T19:35:27.787Z,0.63
2022-09-02T19:37:29.408Z,0.90
2022-09-02T19:39:32.819Z,1.23
2022-09-02T19:41:34.980Z,0.90
2022-09-02T19:43:40.787Z,0.70
2022-09-02T19:45:43.049Z,0.70
2022-09-02T19:48:05.931Z,0.70
2022-09-02T19:50:07.486Z,0.70
2022-09-02T19:52:11.214Z,0.70
2022-09-02T19:54:14.182Z,0.60
2022-09-02T19:56:18.920Z,0.80
2022-09-02T19:58:20.478Z,0.70
2022-09-02T20:00:23.013Z,0.50
2022-09-02T20:02:24.533Z,0.60
2022-09-02T20:04:29.864Z,0.60
2022-09-02T20:06:32.361Z,0.43
2022-09-02T20:08:34.451Z,0.40
2022-09-02T20:10:38.552Z,0.65
2022-09-02T20:12:40.231Z,0.55
2022-09-02T20:14:41.814Z,0.60
2022-09-02T20:16:44.275Z,0.80
2022-09-02T20:18:46.165Z,0.77
2022-09-02T20:20:50.360Z,0.45
2022-09-02T20:22:55.227Z,0.60
2022-09-02T20:24:58.033Z,0.40
2022-09-02T20:27:32.441Z,0.60
2022-09-02T20:30:01.620Z,0.57
2022-09-02T20:32:13.632Z,0.35
2022-09-02T20:34:49.294Z,0.70
2022-09-02T20:37:05.789Z,0.77
2022-09-02T20:39:22.251Z,0.70
2022-09-02T20:41:55.164Z,0.50
2022-09-02T20:44:27.446Z,0.73
2022-09-02T20:46:48.058Z,0.63
2022-09-02T20:49:12.584Z,0.63
2022-09-02T20:51:14.355Z,0.73
2022-09-02T20:53:21.830Z,0.50
2022-09-02T20:55:45.089Z,0.50
2022-09-02T20:58:16.025Z,0.60
2022-09-02T21:00:20.625Z,0.60
2022-09-02T21:02:28.116Z,0.80
2022-09-02T21:04:58.941Z,0.52
2022-09-02T21:07:18.085Z,2.95
2022-09-02T21:09:33.166Z,1.80
2022-09-02T21:11:52.107Z,0.70
2022-09-02T21:14:00.579Z,0.80
2022-09-02T21:16:08.910Z,0.75
2022-09-02T21:18:26.013Z,0.70
2022-09-02T21:20:59.470Z,0.63
2022-09-02T21:23:05.211Z,1.02
2022-09-02T21:25:36.649Z,0.77
2022-09-02T21:27:46.437Z,0.95
2022-09-02T21:30:00.229Z,1.30
2022-09-02T21:32:17.443Z,0.80
2022-09-02T21:34:25.597Z,1.00
2022-09-02T21:36:30.351Z,1.02
2022-09-02T21:38:41.071Z,0.63
2022-09-02T21:41:10.620Z,0.70
2022-09-02T21:43:26.090Z,0.60
2022-09-02T21:46:05.633Z,0.98
2022-09-02T21:48:10.876Z,1.27
2022-09-02T21:50:23.022Z,0.93
2022-09-02T21:52:55.045Z,0.70
2022-09-02T21:55:15.951Z,1.02
2022-09-02T21:57:28.850Z,0.60
2022-09-02T21:59:48.359Z,0.68
2022-09-02T22:01:59.672Z,0.90
2022-09-02T22:04:39.665Z,0.70
2022-09-02T22:06:43.952Z,0.80
2022-09-02T22:09:14.549Z,0.90
2022-09-02T22:11:39.096Z,1.23
2022-09-02T22:13:41.949Z,0.75
2022-09-02T22:15:59.569Z,0.60
2022-09-02T22:18:28.590Z,1.15
2022-09-02T22:20:39.061Z,0.98
2022-09-02T22:22:46.090Z,0.80
2022-09-02T22:24:52.513Z,0.88
2022-09-02T22:27:06.409Z,1.48
2022-09-02T22:29:17.203Z,0.60
2022-09-02T22:31:25.924Z,0.82
2022-09-02T22:33:36.737Z,0.80
2022-09-02T22:35:52.227Z,0.80
2022-09-02T22:38:30.514Z,0.88
2022-09-02T22:42:40.822Z,1.20
2022-09-02T22:45:12.151Z,0.60
2022-09-02T22:47:33.083Z,0.90
2022-09-02T22:49:59.384Z,0.70
2022-09-02T22:52:34.576Z,0.60
2022-09-02T22:54:36.118Z,0.73
2022-09-02T22:57:21.372Z,0.60
2022-09-02T22:59:27.100Z,0.70
2022-09-02T23:01:51.768Z,0.75
2022-09-02T23:04:02.129Z,0.80
2022-09-02T23:06:24.983Z,0.70
2022-09-02T23:08:27.263Z,0.68
2022-09-02T23:10:28.835Z,0.80
2022-09-02T23:12:43.471Z,0.60
2022-09-02T23:15:09.924Z,0.90
2022-09-02T23:17:27.566Z,0.85
2022-09-02T23:19:41.263Z,0.88
2022-09-02T23:22:05.532Z,2.50
2022-09-02T23:24:45.223Z,0.90
2022-09-02T23:27:03.538Z,0.70
2022-09-02T23:29:18.642Z,0.80
2022-09-02T23:31:32.260Z,0.50
2022-09-02T23:33:50.924Z,0.70
2022-09-02T23:36:15.435Z,0.63
2022-09-02T23:38:35.286Z,0.60
2022-09-02T23:40:42.960Z,0.60
2022-09-02T23:42:46.890Z,0.70
2022-09-02T23:44:50.222Z,0.68
2022-09-02T23:47:13.223Z,0.80
2022-09-02T23:49:15.010Z,0.70
2022-09-02T23:51:32.181Z,0.68
2022-09-02T23:53:54.766Z,0.70
2022-09-02T23:56:08.341Z,0.60
2022-09-02T23:58:20.837Z,0.70
